sensor_id;sensor_type;location;lat;lon;timestamp;P1;durP1;ratioP1;P2;durP2;ratioP2
44973;SDS011;60981;50.720;11.342;2023-12-20T00:00:13;0.10;;;0.00;;
44973;SDS011;60981;50.720;11.342;2023-12-20T00:01:16;0.90;;;0.30;;
44973;SDS011;60981;50.720;11.342;2023-12-20T00:02:21;0.10;;;0.00;;
44973;SDS011;60981;50.720;11.342;2023-12-20T00:03:25;0.30;;;0.00;;
44973;SDS011;60981;50.720;11.342;2023-12-20T00:04:42;0.80;;;0.00;;
44973;SDS011;60981;50.720;11.342;2023-12-20T00:05:46;0.60;;;0.00;;
44973;SDS011;60981;50.720;11.342;2023-12-20T00:06:52;0.20;;;0.00;;
44973;SDS011;60981;50.720;11.342;2023-12-20T00:08:01;0.40;;;0.00;;
44973;SDS011;60981;50.720;11.342;2023-12-20T00:09:07;0.40;;;0.00;;
44973;SDS011;60981;50.720;11.342;2023-12-20T00:10:09;0.30;;;0.00;;
44973;SDS011;60981;50.720;11.342;2023-12-20T00:11:12;0.20;;;0.00;;
44973;SDS011;60981;50.720;11.342;2023-12-20T00:12:14;0.00;;;0.00;;
44973;SDS011;60981;50.720;11.342;2023-12-20T00:13:16;0.20;;;0.00;;
44973;SDS011;60981;50.720;11.342;2023-12-20T00:14:20;0.30;;;0.10;;
44973;SDS011;60981;50.720;11.342;2023-12-20T00:15:24;0.60;;;0.00;;
44973;SDS011;60981;50.720;11.342;2023-12-20T00:16:28;0.17;;;0.00;;
44973;SDS011;60981;50.720;11.342;2023-12-20T00:17:31;0.60;;;0.20;;
44973;SDS011;60981;50.720;11.342;2023-12-20T00:18:37;0.00;;;0.00;;
44973;SDS011;60981;50.720;11.342;2023-12-20T00:19:40;2.50;;;0.00;;
44973;SDS011;60981;50.720;11.342;2023-12-20T00:20:43;0.43;;;0.00;;
44973;SDS011;60981;50.720;11.342;2023-12-20T00:21:45;0.00;;;0.00;;
44973;SDS011;60981;50.720;11.342;2023-12-20T00:24:52;0.00;;;0.00;;
44973;SDS011;60981;50.720;11.342;2023-12-20T00:25:55;0.00;;;0.00;;
44973;SDS011;60981;50.720;11.342;2023-12-20T00:27:02;0.00;;;0.00;;
44973;SDS011;60981;50.720;11.342;2023-12-20T00:28:05;0.00;;;0.00;;
44973;SDS011;60981;50.720;11.342;2023-12-20T00:29:09;0.20;;;0.10;;
44973;SDS011;60981;50.720;11.342;2023-12-20T00:30:11;0.00;;;0.00;;
44973;SDS011;60981;50.720;11.342;2023-12-20T00:31:16;0.20;;;0.00;;
44973;SDS011;60981;50.720;11.342;2023-12-20T00:32:19;2.67;;;0.05;;
44973;SDS011;60981;50.720;11.342;2023-12-20T00:33:20;0.10;;;0.00;;
44973;SDS011;60981;50.720;11.342;2023-12-20T00:34:25;0.60;;;0.00;;
44973;SDS011;60981;50.720;11.342;2023-12-20T00:35:31;0.00;;;0.00;;
44973;SDS011;60981;50.720;11.342;2023-12-20T00:36:32;0.17;;;0.00;;
44973;SDS011;60981;50.720;11.342;2023-12-20T00:37:36;1.25;;;0.30;;
44973;SDS011;60981;50.720;11.342;2023-12-20T00:38:39;0.00;;;0.00;;
44973;SDS011;60981;50.720;11.342;2023-12-20T00:39:42;0.20;;;0.10;;
44973;SDS011;60981;50.720;11.342;2023-12-20T00:40:47;0.00;;;0.00;;
44973;SDS011;60981;50.720;11.342;2023-12-20T00:41:55;0.10;;;0.00;;
44973;SDS011;60981;50.720;11.342;2023-12-20T00:42:59;0.25;;;0.00;;
44973;SDS011;60981;50.720;11.342;2023-12-20T00:44:02;1.10;;;0.20;;
44973;SDS011;60981;50.720;11.342;2023-12-20T00:45:08;0.00;;;0.00;;
44973;SDS011;60981;50.720;11.342;2023-12-20T00:46:15;0.10;;;0.00;;
44973;SDS011;60981;50.720;11.342;2023-12-20T00:47:20;0.20;;;0.00;;
44973;SDS011;60981;50.720;11.342;2023-12-20T00:48:25;0.00;;;0.00;;
44973;SDS011;60981;50.720;11.342;2023-12-20T00:49:29;0.00;;;0.00;;
44973;SDS011;60981;50.720;11.342;2023-12-20T00:50:35;0.17;;;0.00;;
44973;SDS011;60981;50.720;11.342;2023-12-20T00:51:40;0.00;;;0.00;;
44973;SDS011;60981;50.720;11.342;2023-12-20T00:52:43;0.10;;;0.00;;
44973;SDS011;60981;50.720;11.342;2023-12-20T00:53:44;0.00;;;0.00;;
44973;SDS011;60981;50.720;11.342;2023-12-20T00:54:47;0.00;;;0.00;;
44973;SDS011;60981;50.720;11.342;2023-12-20T00:55:52;0.03;;;0.00;;
44973;SDS011;60981;50.720;11.342;2023-12-20T00:57:00;0.10;;;0.00;;
44973;SDS011;60981;50.720;11.342;2023-12-20T00:58:06;0.20;;;0.00;;
44973;SDS011;60981;50.720;11.342;2023-12-20T00:59:13;0.00;;;0.00;;
44973;SDS011;60981;50.720;11.342;2023-12-20T01:00:19;0.05;;;0.00;;
44973;SDS011;60981;50.720;11.342;2023-12-20T01:01:23;0.08;;;0.00;;
44973;SDS011;60981;50.720;11.342;2023-12-20T01:02:26;0.00;;;0.00;;
44973;SDS011;60981;50.720;11.342;2023-12-20T01:03:28;0.20;;;0.00;;
44973;SDS011;60981;50.720;11.342;2023-12-20T01:09:06;0.00;;;0.00;;
44973;SDS011;60981;50.720;11.342;2023-12-20T01:10:08;0.30;;;0.00;;
44973;SDS011;60981;50.720;11.342;2023-12-20T01:11:10;0.00;;;0.00;;
44973;SDS011;60981;50.720;11.342;2023-12-20T01:12:13;0.10;;;0.00;;
44973;SDS011;60981;50.720;11.342;2023-12-20T01:13:15;0.00;;;0.00;;
44973;SDS011;60981;50.720;11.342;2023-12-20T01:14:20;0.00;;;0.00;;
44973;SDS011;60981;50.720;11.342;2023-12-20T01:15:25;0.10;;;0.00;;
44973;SDS011;60981;50.720;11.342;2023-12-20T01:16:30;0.10;;;0.00;;
44973;SDS011;60981;50.720;11.342;2023-12-20T01:17:31;0.00;;;0.00;;
44973;SDS011;60981;50.720;11.342;2023-12-20T01:18:35;0.00;;;0.00;;
44973;SDS011;60981;50.720;11.342;2023-12-20T01:19:43;0.00;;;0.00;;
44973;SDS011;60981;50.720;11.342;2023-12-20T01:20:51;0.10;;;0.10;;
44973;SDS011;60981;50.720;11.342;2023-12-20T01:21:56;0.00;;;0.00;;
44973;SDS011;60981;50.720;11.342;2023-12-20T01:22:58;0.47;;;0.00;;
44973;SDS011;60981;50.720;11.342;2023-12-20T01:24:00;0.20;;;0.00;;
44973;SDS011;60981;50.720;11.342;2023-12-20T01:25:03;0.00;;;0.00;;
44973;SDS011;60981;50.720;11.342;2023-12-20T01:26:06;0.10;;;0.00;;
44973;SDS011;60981;50.720;11.342;2023-12-20T01:27:08;0.00;;;0.00;;
44973;SDS011;60981;50.720;11.342;2023-12-20T01:30:10;0.50;;;0.00;;
44973;SDS011;60981;50.720;11.342;2023-12-20T01:31:13;0.10;;;0.00;;
44973;SDS011;60981;50.720;11.342;2023-12-20T01:32:17;0.00;;;0.00;;
44973;SDS011;60981;50.720;11.342;2023-12-20T01:33:20;0.20;;;0.00;;
44973;SDS011;60981;50.720;11.342;2023-12-20T01:34:22;0.00;;;0.00;;
44973;SDS011;60981;50.720;11.342;2023-12-20T01:35:28;0.10;;;0.00;;
44973;SDS011;60981;50.720;11.342;2023-12-20T01:36:31;0.00;;;0.00;;
44973;SDS011;60981;50.720;11.342;2023-12-20T01:37:34;0.10;;;0.00;;
44973;SDS011;60981;50.720;11.342;2023-12-20T01:38:37;0.10;;;0.00;;
44973;SDS011;60981;50.720;11.342;2023-12-20T01:39:40;0.08;;;0.00;;
44973;SDS011;60981;50.720;11.342;2023-12-20T01:40:44;0.00;;;0.00;;
44973;SDS011;60981;50.720;11.342;2023-12-20T01:41:47;0.00;;;0.00;;
44973;SDS011;60981;50.720;11.342;2023-12-20T01:42:58;0.10;;;0.00;;
44973;SDS011;60981;50.720;11.342;2023-12-20T01:44:03;0.00;;;0.00;;
44973;SDS011;60981;50.720;11.342;2023-12-20T01:45:11;0.10;;;0.00;;
44973;SDS011;60981;50.720;11.342;2023-12-20T01:46:15;0.20;;;0.00;;
44973;SDS011;60981;50.720;11.342;2023-12-20T01:47:20;0.00;;;0.00;;
44973;SDS011;60981;50.720;11.342;2023-12-20T01:48:29;0.00;;;0.00;;
44973;SDS011;60981;50.720;11.342;2023-12-20T01:49:33;0.00;;;0.00;;
44973;SDS011;60981;50.720;11.342;2023-12-20T01:50:37;0.00;;;0.00;;
44973;SDS011;60981;50.720;11.342;2023-12-20T01:51:44;0.00;;;0.00;;
44973;SDS011;60981;50.720;11.342;2023-12-20T01:52:46;0.90;;;0.00;;
44973;SDS011;60981;50.720;11.342;2023-12-20T01:53:51;0.00;;;0.00;;
44973;SDS011;60981;50.720;11.342;2023-12-20T01:54:55;0.00;;;0.00;;
44973;SDS011;60981;50.720;11.342;2023-12-20T01:56:04;0.00;;;0.00;;
44973;SDS011;60981;50.720;11.342;2023-12-20T01:57:08;0.10;;;0.10;;
44973;SDS011;60981;50.720;11.342;2023-12-20T01:58:11;0.10;;;0.00;;
44973;SDS011;60981;50.720;11.342;2023-12-20T01:59:17;0.20;;;0.00;;
44973;SDS011;60981;50.720;11.342;2023-12-20T02:00:26;0.00;;;0.00;;
44973;SDS011;60981;50.720;11.342;2023-12-20T02:01:33;0.00;;;0.00;;
44973;SDS011;60981;50.720;11.342;2023-12-20T02:02:37;0.10;;;0.00;;
44973;SDS011;60981;50.720;11.342;2023-12-20T02:03:44;0.10;;;0.00;;
44973;SDS011;60981;50.720;11.342;2023-12-20T02:04:49;0.00;;;0.00;;
44973;SDS011;60981;50.720;11.342;2023-12-20T02:05:54;0.10;;;0.00;;
44973;SDS011;60981;50.720;11.342;2023-12-20T02:07:00;0.00;;;0.00;;
44973;SDS011;60981;50.720;11.342;2023-12-20T02:08:07;0.00;;;0.00;;
44973;SDS011;60981;50.720;11.342;2023-12-20T02:09:10;0.10;;;0.00;;
44973;SDS011;60981;50.720;11.342;2023-12-20T02:10:21;0.00;;;0.00;;
44973;SDS011;60981;50.720;11.342;2023-12-20T02:11:29;0.20;;;0.00;;
44973;SDS011;60981;50.720;11.342;2023-12-20T02:12:36;0.00;;;0.00;;
44973;SDS011;60981;50.720;11.342;2023-12-20T02:13:39;0.40;;;0.30;;
44973;SDS011;60981;50.720;11.342;2023-12-20T02:14:42;0.40;;;0.10;;
44973;SDS011;60981;50.720;11.342;2023-12-20T02:15:48;0.10;;;0.00;;
44973;SDS011;60981;50.720;11.342;2023-12-20T02:16:53;0.00;;;0.00;;
44973;SDS011;60981;50.720;11.342;2023-12-20T02:17:56;0.10;;;0.00;;
44973;SDS011;60981;50.720;11.342;2023-12-20T02:19:01;0.10;;;0.00;;
44973;SDS011;60981;50.720;11.342;2023-12-20T02:20:03;0.00;;;0.00;;
44973;SDS011;60981;50.720;11.342;2023-12-20T02:21:07;0.05;;;0.00;;
44973;SDS011;60981;50.720;11.342;2023-12-20T02:22:10;0.00;;;0.00;;
44973;SDS011;60981;50.720;11.342;2023-12-20T02:23:16;0.22;;;0.08;;
44973;SDS011;60981;50.720;11.342;2023-12-20T02:24:20;0.10;;;0.00;;
44973;SDS011;60981;50.720;11.342;2023-12-20T02:25:23;0.00;;;0.00;;
44973;SDS011;60981;50.720;11.342;2023-12-20T02:26:26;0.10;;;0.00;;
44973;SDS011;60981;50.720;11.342;2023-12-20T02:27:30;0.00;;;0.00;;
44973;SDS011;60981;50.720;11.342;2023-12-20T02:28:35;0.23;;;0.03;;
44973;SDS011;60981;50.720;11.342;2023-12-20T02:29:46;0.10;;;0.00;;
44973;SDS011;60981;50.720;11.342;2023-12-20T02:30:50;0.08;;;0.00;;
44973;SDS011;60981;50.720;11.342;2023-12-20T02:31:53;0.50;;;0.05;;
44973;SDS011;60981;50.720;11.342;2023-12-20T02:33:01;0.00;;;0.00;;
44973;SDS011;60981;50.720;11.342;2023-12-20T02:34:10;0.20;;;0.00;;
44973;SDS011;60981;50.720;11.342;2023-12-20T02:35:16;0.10;;;0.00;;
44973;SDS011;60981;50.720;11.342;2023-12-20T02:36:18;0.10;;;0.00;;
44973;SDS011;60981;50.720;11.342;2023-12-20T02:37:21;0.10;;;0.00;;
44973;SDS011;60981;50.720;11.342;2023-12-20T02:38:25;0.00;;;0.00;;
44973;SDS011;60981;50.720;11.342;2023-12-20T02:39:31;0.20;;;0.00;;
44973;SDS011;60981;50.720;11.342;2023-12-20T02:40:39;0.20;;;0.00;;
44973;SDS011;60981;50.720;11.342;2023-12-20T02:41:52;0.17;;;0.00;;
44973;SDS011;60981;50.720;11.342;2023-12-20T02:42:54;0.05;;;0.00;;
44973;SDS011;60981;50.720;11.342;2023-12-20T02:43:58;0.00;;;0.00;;
44973;SDS011;60981;50.720;11.342;2023-12-20T02:45:01;0.03;;;0.00;;
44973;SDS011;60981;50.720;11.342;2023-12-20T02:46:04;0.00;;;0.00;;
44973;SDS011;60981;50.720;11.342;2023-12-20T02:47:08;0.00;;;0.00;;
44973;SDS011;60981;50.720;11.342;2023-12-20T02:48:11;0.17;;;0.10;;
44973;SDS011;60981;50.720;11.342;2023-12-20T02:49:13;0.50;;;0.20;;
44973;SDS011;60981;50.720;11.342;2023-12-20T02:50:16;0.08;;;0.00;;
44973;SDS011;60981;50.720;11.342;2023-12-20T02:53:29;0.00;;;0.00;;
44973;SDS011;60981;50.720;11.342;2023-12-20T02:54:36;0.00;;;0.00;;
44973;SDS011;60981;50.720;11.342;2023-12-20T02:55:41;0.30;;;0.00;;
44973;SDS011;60981;50.720;11.342;2023-12-20T02:56:45;0.00;;;0.00;;
44973;SDS011;60981;50.720;11.342;2023-12-20T02:57:47;0.00;;;0.00;;
44973;SDS011;60981;50.720;11.342;2023-12-20T02:58:51;0.50;;;0.00;;
44973;SDS011;60981;50.720;11.342;2023-12-20T02:59:53;0.00;;;0.00;;
44973;SDS011;60981;50.720;11.342;2023-12-20T03:00:58;0.00;;;0.00;;
44973;SDS011;60981;50.720;11.342;2023-12-20T03:02:01;0.00;;;0.00;;
44973;SDS011;60981;50.720;11.342;2023-12-20T03:03:07;0.00;;;0.00;;
44973;SDS011;60981;50.720;11.342;2023-12-20T03:04:12;0.20;;;0.00;;
44973;SDS011;60981;50.720;11.342;2023-12-20T03:05:18;0.00;;;0.00;;
44973;SDS011;60981;50.720;11.342;2023-12-20T03:06:23;0.20;;;0.00;;
44973;SDS011;60981;50.720;11.342;2023-12-20T03:07:29;0.00;;;0.00;;
44973;SDS011;60981;50.720;11.342;2023-12-20T03:08:31;0.10;;;0.00;;
44973;SDS011;60981;50.720;11.342;2023-12-20T03:09:33;0.10;;;0.00;;
44973;SDS011;60981;50.720;11.342;2023-12-20T03:10:59;0.10;;;0.00;;
44973;SDS011;60981;50.720;11.342;2023-12-20T03:12:03;0.00;;;0.00;;
44973;SDS011;60981;50.720;11.342;2023-12-20T03:13:06;0.00;;;0.00;;
44973;SDS011;60981;50.720;11.342;2023-12-20T03:14:07;0.00;;;0.00;;
44973;SDS011;60981;50.720;11.342;2023-12-20T03:15:11;0.00;;;0.00;;
44973;SDS011;60981;50.720;11.342;2023-12-20T03:16:14;0.20;;;0.00;;
44973;SDS011;60981;50.720;11.342;2023-12-20T03:17:17;0.20;;;0.20;;
44973;SDS011;60981;50.720;11.342;2023-12-20T03:18:22;0.20;;;0.00;;
44973;SDS011;60981;50.720;11.342;2023-12-20T03:19:24;0.00;;;0.00;;
44973;SDS011;60981;50.720;11.342;2023-12-20T03:20:27;0.00;;;0.00;;
44973;SDS011;60981;50.720;11.342;2023-12-20T03:21:36;0.00;;;0.00;;
44973;SDS011;60981;50.720;11.342;2023-12-20T03:22:38;0.00;;;0.00;;
44973;SDS011;60981;50.720;11.342;2023-12-20T03:23:42;0.00;;;0.00;;
44973;SDS011;60981;50.720;11.342;2023-12-20T03:24:48;0.00;;;0.00;;
44973;SDS011;60981;50.720;11.342;2023-12-20T03:25:53;0.00;;;0.00;;
44973;SDS011;60981;50.720;11.342;2023-12-20T03:26:55;0.10;;;0.00;;
44973;SDS011;60981;50.720;11.342;2023-12-20T03:27:59;0.00;;;0.00;;
44973;SDS011;60981;50.720;11.342;2023-12-20T03:29:03;0.00;;;0.00;;
44973;SDS011;60981;50.720;11.342;2023-12-20T03:30:07;0.00;;;0.00;;
44973;SDS011;60981;50.720;11.342;2023-12-20T03:31:10;0.00;;;0.00;;
44973;SDS011;60981;50.720;11.342;2023-12-20T03:32:12;0.00;;;0.00;;
44973;SDS011;60981;50.720;11.342;2023-12-20T03:33:15;0.00;;;0.00;;
44973;SDS011;60981;50.720;11.342;2023-12-20T03:34:22;0.00;;;0.00;;
44973;SDS011;60981;50.720;11.342;2023-12-20T03:35:24;0.10;;;0.00;;
44973;SDS011;60981;50.720;11.342;2023-12-20T03:36:25;0.00;;;0.00;;
44973;SDS011;60981;50.720;11.342;2023-12-20T03:37:34;0.00;;;0.00;;
44973;SDS011;60981;50.720;11.342;2023-12-20T03:38:38;0.00;;;0.00;;
44973;SDS011;60981;50.720;11.342;2023-12-20T03:39:40;1.00;;;0.00;;
44973;SDS011;60981;50.720;11.342;2023-12-20T03:40:46;0.35;;;0.30;;
44973;SDS011;60981;50.720;11.342;2023-12-20T03:41:49;0.00;;;0.00;;
44973;SDS011;60981;50.720;11.342;2023-12-20T03:42:52;0.00;;;0.00;;
44973;SDS011;60981;50.720;11.342;2023-12-20T03:43:57;0.00;;;0.00;;
44973;SDS011;60981;50.720;11.342;2023-12-20T03:45:02;0.00;;;0.00;;
44973;SDS011;60981;50.720;11.342;2023-12-20T03:46:03;0.10;;;0.00;;
44973;SDS011;60981;50.720;11.342;2023-12-20T03:47:07;0.00;;;0.00;;
44973;SDS011;60981;50.720;11.342;2023-12-20T03:48:09;0.08;;;0.08;;
44973;SDS011;60981;50.720;11.342;2023-12-20T03:49:13;0.00;;;0.00;;
44973;SDS011;60981;50.720;11.342;2023-12-20T03:50:18;0.10;;;0.00;;
44973;SDS011;60981;50.720;11.342;2023-12-20T03:51:20;0.00;;;0.00;;
44973;SDS011;60981;50.720;11.342;2023-12-20T03:52:22;0.20;;;0.00;;
44973;SDS011;60981;50.720;11.342;2023-12-20T03:54:51;0.20;;;0.00;;
44973;SDS011;60981;50.720;11.342;2023-12-20T03:55:58;0.10;;;0.00;;
44973;SDS011;60981;50.720;11.342;2023-12-20T03:57:02;0.00;;;0.00;;
44973;SDS011;60981;50.720;11.342;2023-12-20T03:58:13;0.00;;;0.00;;
44973;SDS011;60981;50.720;11.342;2023-12-20T03:59:16;0.00;;;0.00;;
44973;SDS011;60981;50.720;11.342;2023-12-20T04:00:24;0.30;;;0.00;;
44973;SDS011;60981;50.720;11.342;2023-12-20T04:01:28;0.10;;;0.00;;
44973;SDS011;60981;50.720;11.342;2023-12-20T04:02:30;0.30;;;0.00;;
44973;SDS011;60981;50.720;11.342;2023-12-20T04:03:31;0.00;;;0.00;;
44973;SDS011;60981;50.720;11.342;2023-12-20T04:04:33;0.70;;;0.10;;
44973;SDS011;60981;50.720;11.342;2023-12-20T04:05:35;0.00;;;0.00;;
44973;SDS011;60981;50.720;11.342;2023-12-20T04:06:41;0.00;;;0.00;;
44973;SDS011;60981;50.720;11.342;2023-12-20T04:07:45;0.00;;;0.00;;
44973;SDS011;60981;50.720;11.342;2023-12-20T04:08:48;0.20;;;0.00;;
44973;SDS011;60981;50.720;11.342;2023-12-20T04:09:50;0.20;;;0.20;;
44973;SDS011;60981;50.720;11.342;2023-12-20T04:10:57;0.20;;;0.00;;
44973;SDS011;60981;50.720;11.342;2023-12-20T04:12:01;0.50;;;0.00;;
44973;SDS011;60981;50.720;11.342;2023-12-20T04:13:06;0.08;;;0.00;;
44973;SDS011;60981;50.720;11.342;2023-12-20T04:16:29;0.30;;;0.13;;
44973;SDS011;60981;50.720;11.342;2023-12-20T04:17:35;0.55;;;0.10;;
44973;SDS011;60981;50.720;11.342;2023-12-20T04:18:39;0.20;;;0.00;;
44973;SDS011;60981;50.720;11.342;2023-12-20T04:19:44;0.22;;;0.00;;
44973;SDS011;60981;50.720;11.342;2023-12-20T04:20:47;0.40;;;0.20;;
44973;SDS011;60981;50.720;11.342;2023-12-20T04:21:50;0.08;;;0.00;;
44973;SDS011;60981;50.720;11.342;2023-12-20T04:22:53;0.00;;;0.00;;
44973;SDS011;60981;50.720;11.342;2023-12-20T04:23:59;0.10;;;0.00;;
44973;SDS011;60981;50.720;11.342;2023-12-20T04:25:02;0.00;;;0.00;;
44973;SDS011;60981;50.720;11.342;2023-12-20T04:26:07;0.00;;;0.00;;
44973;SDS011;60981;50.720;11.342;2023-12-20T04:27:11;0.20;;;0.03;;
44973;SDS011;60981;50.720;11.342;2023-12-20T04:28:15;0.00;;;0.00;;
44973;SDS011;60981;50.720;11.342;2023-12-20T04:29:19;0.15;;;0.00;;
44973;SDS011;60981;50.720;11.342;2023-12-20T04:30:23;0.00;;;0.00;;
44973;SDS011;60981;50.720;11.342;2023-12-20T04:31:24;0.10;;;0.00;;
44973;SDS011;60981;50.720;11.342;2023-12-20T04:32:26;0.05;;;0.00;;
44973;SDS011;60981;50.720;11.342;2023-12-20T04:33:28;0.00;;;0.00;;
44973;SDS011;60981;50.720;11.342;2023-12-20T04:34:31;0.40;;;0.00;;
44973;SDS011;60981;50.720;11.342;2023-12-20T04:36:54;0.40;;;0.10;;
44973;SDS011;60981;50.720;11.342;2023-12-20T04:37:57;0.03;;;0.00;;
44973;SDS011;60981;50.720;11.342;2023-12-20T04:39:00;1.45;;;0.00;;
44973;SDS011;60981;50.720;11.342;2023-12-20T04:40:02;0.68;;;0.00;;
44973;SDS011;60981;50.720;11.342;2023-12-20T04:41:10;0.20;;;0.00;;
44973;SDS011;60981;50.720;11.342;2023-12-20T04:42:12;0.00;;;0.00;;
44973;SDS011;60981;50.720;11.342;2023-12-20T04:43:21;0.00;;;0.00;;
44973;SDS011;60981;50.720;11.342;2023-12-20T04:44:26;0.10;;;0.00;;
44973;SDS011;60981;50.720;11.342;2023-12-20T04:45:29;0.10;;;0.00;;
44973;SDS011;60981;50.720;11.342;2023-12-20T04:46:34;0.00;;;0.00;;
44973;SDS011;60981;50.720;11.342;2023-12-20T04:47:39;0.00;;;0.00;;
44973;SDS011;60981;50.720;11.342;2023-12-20T04:48:45;0.00;;;0.00;;
44973;SDS011;60981;50.720;11.342;2023-12-20T04:49:50;0.15;;;0.05;;
44973;SDS011;60981;50.720;11.342;2023-12-20T04:50:52;0.00;;;0.00;;
44973;SDS011;60981;50.720;11.342;2023-12-20T04:51:55;1.40;;;0.50;;
44973;SDS011;60981;50.720;11.342;2023-12-20T04:52:58;0.10;;;0.00;;
44973;SDS011;60981;50.720;11.342;2023-12-20T04:54:06;0.00;;;0.00;;
44973;SDS011;60981;50.720;11.342;2023-12-20T04:55:11;0.00;;;0.00;;
44973;SDS011;60981;50.720;11.342;2023-12-20T04:56:13;0.20;;;0.00;;
44973;SDS011;60981;50.720;11.342;2023-12-20T04:57:23;0.10;;;0.00;;
44973;SDS011;60981;50.720;11.342;2023-12-20T04:58:27;1.00;;;0.00;;
44973;SDS011;60981;50.720;11.342;2023-12-20T04:59:30;0.10;;;0.00;;
44973;SDS011;60981;50.720;11.342;2023-12-20T05:00:34;0.10;;;0.00;;
44973;SDS011;60981;50.720;11.342;2023-12-20T05:01:38;0.10;;;0.00;;
44973;SDS011;60981;50.720;11.342;2023-12-20T05:02:42;0.00;;;0.00;;
44973;SDS011;60981;50.720;11.342;2023-12-20T05:03:46;0.00;;;0.00;;
44973;SDS011;60981;50.720;11.342;2023-12-20T05:04:50;0.00;;;0.00;;
44973;SDS011;60981;50.720;11.342;2023-12-20T05:05:55;0.00;;;0.00;;
44973;SDS011;60981;50.720;11.342;2023-12-20T05:06:58;0.13;;;0.00;;
44973;SDS011;60981;50.720;11.342;2023-12-20T05:08:00;0.90;;;0.10;;
44973;SDS011;60981;50.720;11.342;2023-12-20T05:09:03;0.00;;;0.00;;
44973;SDS011;60981;50.720;11.342;2023-12-20T05:10:05;0.80;;;0.10;;
44973;SDS011;60981;50.720;11.342;2023-12-20T05:11:10;0.10;;;0.00;;
44973;SDS011;60981;50.720;11.342;2023-12-20T05:12:21;0.90;;;0.20;;
44973;SDS011;60981;50.720;11.342;2023-12-20T05:13:29;0.25;;;0.00;;
44973;SDS011;60981;50.720;11.342;2023-12-20T05:14:45;0.13;;;0.00;;
44973;SDS011;60981;50.720;11.342;2023-12-20T05:15:47;0.35;;;0.00;;
44973;SDS011;60981;50.720;11.342;2023-12-20T05:16:50;0.00;;;0.00;;
44973;SDS011;60981;50.720;11.342;2023-12-20T05:17:55;0.30;;;0.00;;
44973;SDS011;60981;50.720;11.342;2023-12-20T05:19:00;0.35;;;0.10;;
44973;SDS011;60981;50.720;11.342;2023-12-20T05:20:04;0.30;;;0.00;;
44973;SDS011;60981;50.720;11.342;2023-12-20T05:21:07;0.40;;;0.00;;
44973;SDS011;60981;50.720;11.342;2023-12-20T05:22:11;0.08;;;0.00;;
44973;SDS011;60981;50.720;11.342;2023-12-20T05:23:17;0.20;;;0.00;;
44973;SDS011;60981;50.720;11.342;2023-12-20T05:24:22;0.40;;;0.10;;
44973;SDS011;60981;50.720;11.342;2023-12-20T05:25:24;0.15;;;0.00;;
44973;SDS011;60981;50.720;11.342;2023-12-20T05:26:32;0.50;;;0.10;;
44973;SDS011;60981;50.720;11.342;2023-12-20T05:27:35;1.40;;;0.00;;
44973;SDS011;60981;50.720;11.342;2023-12-20T05:28:44;0.50;;;0.00;;
44973;SDS011;60981;50.720;11.342;2023-12-20T05:30:01;0.00;;;0.00;;
44973;SDS011;60981;50.720;11.342;2023-12-20T05:31:04;0.25;;;0.00;;
44973;SDS011;60981;50.720;11.342;2023-12-20T05:32:06;0.17;;;0.00;;
44973;SDS011;60981;50.720;11.342;2023-12-20T05:33:12;0.10;;;0.00;;
44973;SDS011;60981;50.720;11.342;2023-12-20T05:34:16;0.25;;;0.03;;
44973;SDS011;60981;50.720;11.342;2023-12-20T05:35:21;1.33;;;0.20;;
44973;SDS011;60981;50.720;11.342;2023-12-20T05:36:27;2.47;;;0.70;;
44973;SDS011;60981;50.720;11.342;2023-12-20T05:37:35;2.42;;;0.82;;
44973;SDS011;60981;50.720;11.342;2023-12-20T05:38:39;10.02;;;2.83;;
44973;SDS011;60981;50.720;11.342;2023-12-20T05:39:43;7.97;;;2.47;;
44973;SDS011;60981;50.720;11.342;2023-12-20T05:40:45;5.90;;;2.08;;
44973;SDS011;60981;50.720;11.342;2023-12-20T05:41:49;5.90;;;1.00;;
44973;SDS011;60981;50.720;11.342;2023-12-20T05:42:52;3.63;;;0.40;;
44973;SDS011;60981;50.720;11.342;2023-12-20T05:43:58;1.70;;;0.45;;
44973;SDS011;60981;50.720;11.342;2023-12-20T05:45:06;2.33;;;0.47;;
44973;SDS011;60981;50.720;11.342;2023-12-20T05:46:10;1.27;;;0.43;;
44973;SDS011;60981;50.720;11.342;2023-12-20T05:47:15;1.20;;;0.10;;
44973;SDS011;60981;50.720;11.342;2023-12-20T05:48:21;0.90;;;0.10;;
44973;SDS011;60981;50.720;11.342;2023-12-20T05:49:26;0.85;;;0.20;;
44973;SDS011;60981;50.720;11.342;2023-12-20T05:50:28;0.17;;;0.03;;
44973;SDS011;60981;50.720;11.342;2023-12-20T05:51:30;2.70;;;0.20;;
44973;SDS011;60981;50.720;11.342;2023-12-20T05:52:32;1.25;;;0.30;;
44973;SDS011;60981;50.720;11.342;2023-12-20T05:53:37;1.58;;;0.30;;
44973;SDS011;60981;50.720;11.342;2023-12-20T05:54:41;1.00;;;0.20;;
44973;SDS011;60981;50.720;11.342;2023-12-20T05:55:45;0.47;;;0.10;;
44973;SDS011;60981;50.720;11.342;2023-12-20T05:56:47;0.30;;;0.00;;
44973;SDS011;60981;50.720;11.342;2023-12-20T05:57:50;1.60;;;0.10;;
44973;SDS011;60981;50.720;11.342;2023-12-20T05:58:55;0.40;;;0.10;;
44973;SDS011;60981;50.720;11.342;2023-12-20T06:00:00;0.85;;;0.20;;
44973;SDS011;60981;50.720;11.342;2023-12-20T06:01:06;0.80;;;0.10;;
44973;SDS011;60981;50.720;11.342;2023-12-20T06:02:13;0.95;;;0.10;;
44973;SDS011;60981;50.720;11.342;2023-12-20T06:03:15;0.80;;;0.20;;
44973;SDS011;60981;50.720;11.342;2023-12-20T06:04:18;0.90;;;0.10;;
44973;SDS011;60981;50.720;11.342;2023-12-20T06:05:25;0.10;;;0.00;;
44973;SDS011;60981;50.720;11.342;2023-12-20T06:06:29;0.52;;;0.10;;
44973;SDS011;60981;50.720;11.342;2023-12-20T06:07:33;0.40;;;0.00;;
44973;SDS011;60981;50.720;11.342;2023-12-20T06:08:40;0.00;;;0.00;;
44973;SDS011;60981;50.720;11.342;2023-12-20T06:09:45;0.30;;;0.00;;
44973;SDS011;60981;50.720;11.342;2023-12-20T06:10:48;0.65;;;0.00;;
44973;SDS011;60981;50.720;11.342;2023-12-20T06:11:51;0.30;;;0.05;;
44973;SDS011;60981;50.720;11.342;2023-12-20T06:12:54;0.20;;;0.00;;
44973;SDS011;60981;50.720;11.342;2023-12-20T06:13:59;0.45;;;0.00;;
44973;SDS011;60981;50.720;11.342;2023-12-20T06:15:05;0.50;;;0.10;;
44973;SDS011;60981;50.720;11.342;2023-12-20T06:16:15;0.43;;;0.10;;
44973;SDS011;60981;50.720;11.342;2023-12-20T06:17:17;0.77;;;0.20;;
44973;SDS011;60981;50.720;11.342;2023-12-20T06:18:20;2.05;;;0.30;;
44973;SDS011;60981;50.720;11.342;2023-12-20T06:19:22;0.63;;;0.10;;
44973;SDS011;60981;50.720;11.342;2023-12-20T06:20:24;3.70;;;1.10;;
44973;SDS011;60981;50.720;11.342;2023-12-20T06:21:26;1.35;;;0.25;;
44973;SDS011;60981;50.720;11.342;2023-12-20T06:22:29;0.60;;;0.30;;
44973;SDS011;60981;50.720;11.342;2023-12-20T06:23:38;1.17;;;0.20;;
44973;SDS011;60981;50.720;11.342;2023-12-20T06:24:40;0.50;;;0.00;;
44973;SDS011;60981;50.720;11.342;2023-12-20T06:25:43;0.90;;;0.30;;
44973;SDS011;60981;50.720;11.342;2023-12-20T06:26:45;3.42;;;1.55;;
44973;SDS011;60981;50.720;11.342;2023-12-20T06:27:47;0.40;;;0.00;;
44973;SDS011;60981;50.720;11.342;2023-12-20T06:28:50;0.40;;;0.00;;
44973;SDS011;60981;50.720;11.342;2023-12-20T06:29:57;0.10;;;0.00;;
44973;SDS011;60981;50.720;11.342;2023-12-20T06:30:58;0.70;;;0.40;;
44973;SDS011;60981;50.720;11.342;2023-12-20T06:32:02;0.38;;;0.10;;
44973;SDS011;60981;50.720;11.342;2023-12-20T06:33:08;0.32;;;0.00;;
44973;SDS011;60981;50.720;11.342;2023-12-20T06:34:11;0.20;;;0.00;;
44973;SDS011;60981;50.720;11.342;2023-12-20T06:35:16;0.03;;;0.00;;
44973;SDS011;60981;50.720;11.342;2023-12-20T06:36:26;0.30;;;0.00;;
44973;SDS011;60981;50.720;11.342;2023-12-20T06:37:29;0.80;;;0.00;;